ADDS METAR Data INFO
IDs: Format: Raw Decoded Include TAF

Data at: 1222 UTC 20 May 2018

METAR for:KZZV (Zanesville Muni, OH, US)
Text:KZZV 201203Z AUTO 00000KT 4SM BR BKN009 21/19 A3006 RMK AO2 CIG 006V012 T02060189
Temperature: 20.6°C ( 69°F)
Dewpoint: 18.9°C ( 66°F) [RH = 90%]
Pressure (altimeter):30.06 inches Hg (1018.0 mb)
Winds:calm
Visibility: 4 sm ( 6 km)
Ceiling:900 feet AGL
Clouds: broken clouds at 900 feet AGL
Weather:BR (mist)
QC Flag:automated observation with no human augmentation